Time;durP1;ratioP1;P1;durP2;ratioP2;P2;SDS_P1;SDS_P2;PMS_P1;PMS_P2;Temp;Humidity;BMP_temperature;BMP_pressure;BME280_temperature;BME280_humidity;BME280_pressure;Samples;Min_cycle;Max_cycle;Signal;HPM_P1;HPM_P2
2023/08/04 00:01:14;;;;;;;3.28;1.42;;;18.70;70.80;;;;;;4999631;28;20038;-74
2023/08/04 00:03:40;;;;;;;2.90;1.30;;;18.60;70.80;;;;;;5016025;28;20037;-75
2023/08/04 00:06:10;;;;;;;5.82;1.67;;;18.70;70.90;;;;;;5032318;28;20095;-75
2023/08/04 00:08:35;;;;;;;4.95;1.50;;;18.60;70.90;;;;;;5015764;28;20045;-75
2023/08/04 00:11:02;;;;;;;1.52;1.13;;;18.60;71.10;;;;;;5032549;28;20049;-75
2023/08/04 00:13:29;;;;;;;3.20;1.60;;;18.60;71.10;;;;;;5015834;28;20485;-75
2023/08/04 00:16:02;;;;;;;4.45;1.63;;;18.60;71.20;;;;;;5015915;28;20092;-75
2023/08/04 00:18:28;;;;;;;6.25;1.73;;;18.60;71.30;;;;;;5031865;28;20555;-75
2023/08/04 00:20:54;;;;;;;5.05;1.60;;;18.60;71.30;;;;;;5015223;28;20046;-75
2023/08/04 00:23:19;;;;;;;3.38;1.70;;;18.60;71.30;;;;;;5015168;28;20485;-75
2023/08/04 00:25:45;;;;;;;3.85;1.58;;;18.60;71.40;;;;;;5032136;28;20049;-74
2023/08/04 00:28:11;;;;;;;4.80;1.50;;;18.60;71.40;;;;;;5015440;28;20041;-74
2023/08/04 00:30:36;;;;;;;4.28;1.30;;;18.60;71.30;;;;;;5015485;28;20041;-74
2023/08/04 00:33:02;;;;;;;3.85;1.75;;;18.50;71.30;;;;;;5015448;28;20047;-74
2023/08/04 00:35:28;;;;;;;5.28;1.67;;;18.50;71.30;;;;;;5031788;28;20484;-74
2023/08/04 00:37:53;;;;;;;5.35;1.33;;;18.50;71.40;;;;;;5031978;28;20116;-74
2023/08/04 00:40:20;;;;;;;4.25;1.52;;;18.50;71.30;;;;;;5015613;28;20049;-74
2023/08/04 00:42:46;;;;;;;4.05;1.38;;;18.50;71.40;;;;;;5015525;28;20586;-74
2023/08/04 00:45:12;;;;;;;4.78;1.38;;;18.40;71.30;;;;;;5015311;28;20414;-74
2023/08/04 00:47:39;;;;;;;6.68;1.50;;;18.50;71.50;;;;;;5031573;28;20455;-75
2023/08/04 00:50:07;;;;;;;3.38;1.50;;;18.40;71.40;;;;;;5031938;28;20080;-75
2023/08/04 00:52:32;;;;;;;3.95;1.67;;;18.40;71.40;;;;;;5031957;28;20471;-75
2023/08/04 00:54:58;;;;;;;3.72;1.60;;;18.40;71.40;;;;;;5031751;28;20081;-75
2023/08/04 00:57:24;;;;;;;2.78;1.35;;;18.40;71.40;;;;;;5031545;28;20053;-75
2023/08/04 00:59:54;;;;;;;2.50;1.33;;;18.30;71.40;;;;;;5015174;28;20079;-75
2023/08/04 01:02:19;;;;;;;5.05;1.65;;;18.30;71.50;;;;;;5031836;28;20037;-75
2023/08/04 01:04:45;;;;;;;4.55;1.65;;;18.30;71.50;;;;;;5031730;28;20128;-74
2023/08/04 01:07:17;;;;;;;4.55;2.15;;;18.20;71.40;;;;;;5015124;28;20401;-75
2023/08/04 01:09:48;;;;;;;4.78;1.33;;;18.20;71.60;;;;;;5031384;28;20095;-75
2023/08/04 01:13:00;;;;;;;4.97;2.08;;;18.20;71.70;;;;;;5031527;28;20433;-75
2023/08/04 01:15:27;;;;;;;5.68;1.73;;;18.20;71.70;;;;;;5018549;28;20053;-75
2023/08/04 01:17:57;;;;;;;3.45;1.20;;;18.10;72.00;;;;;;5031133;28;20480;-75
2023/08/04 01:20:26;;;;;;;3.75;1.83;;;18.10;72.20;;;;;;5031517;28;20041;-75
2023/08/04 01:22:53;;;;;;;3.38;1.50;;;18.10;72.40;;;;;;5031183;28;20516;-75
2023/08/04 01:25:32;;;;;;;5.18;1.50;;;18.10;72.60;;;;;;5031419;28;20124;-75
2023/08/04 01:28:01;;;;;;;3.70;1.40;;;18.00;72.70;;;;;;5031520;28;20041;-75
2023/08/04 01:30:28;;;;;;;2.47;1.50;;;18.00;72.90;;;;;;5014775;28;20033;-75
2023/08/04 01:32:54;;;;;;;3.92;1.50;;;18.00;73.10;;;;;;5018167;28;20529;-75
2023/08/04 01:35:20;;;;;;;5.18;1.38;;;18.00;73.20;;;;;;5035121;28;20124;-75
2023/08/04 01:37:45;;;;;;;3.65;1.27;;;17.90;73.30;;;;;;5035192;28;20073;-76
2023/08/04 01:40:13;;;;;;;3.03;1.20;;;17.90;73.50;;;;;;5018440;28;20685;-75
2023/08/04 01:42:39;;;;;;;3.03;1.10;;;17.90;73.60;;;;;;5034900;28;20041;-75
2023/08/04 01:45:05;;;;;;;5.80;1.88;;;17.90;73.70;;;;;;5018864;28;20401;-75
2023/08/04 01:47:31;;;;;;;2.75;1.48;;;17.90;73.70;;;;;;5002238;28;20033;-75
2023/08/04 01:49:57;;;;;;;5.38;1.55;;;17.90;73.90;;;;;;5034997;28;20481;-75
2023/08/04 01:52:22;;;;;;;5.15;1.33;;;17.80;74.00;;;;;;5018340;28;20038;-76
2023/08/04 01:54:48;;;;;;;3.33;1.55;;;17.80;74.10;;;;;;5034647;28;20041;-75
2023/08/04 01:57:14;;;;;;;3.95;1.30;;;17.80;74.10;;;;;;5001842;28;20057;-76
2023/08/04 01:59:40;;;;;;;3.55;1.52;;;17.80;74.20;;;;;;5034599;28;20130;-76
2023/08/04 02:02:06;;;;;;;3.70;1.42;;;17.80;74.70;;;;;;5034566;28;20041;-76
2023/08/04 02:04:31;;;;;;;4.68;1.00;;;17.80;74.40;;;;;;5018309;28;20033;-75
2023/08/04 02:06:57;;;;;;;5.13;1.20;;;17.70;74.40;;;;;;5018070;28;20566;-75
2023/08/04 02:09:25;;;;;;;4.32;1.10;;;17.80;74.60;;;;;;5018008;28;20041;-75
2023/08/04 02:11:51;;;;;;;3.55;1.20;;;17.70;74.70;;;;;;5034722;28;20506;-75
2023/08/04 02:14:17;;;;;;;3.45;1.20;;;17.70;74.80;;;;;;5001600;28;20124;-75
2023/08/04 02:16:42;;;;;;;2.70;1.05;;;17.70;74.90;;;;;;5001445;28;20041;-75
2023/08/04 02:19:09;;;;;;;3.22;1.15;;;17.70;74.90;;;;;;5034283;28;20041;-75
2023/08/04 02:21:35;;;;;;;4.10;0.90;;;17.70;74.90;;;;;;5017458;28;20129;-76
2023/08/04 02:24:02;;;;;;;1.40;0.77;;;17.70;74.90;;;;;;5034284;28;20065;-75
2023/08/04 02:26:28;;;;;;;2.20;0.90;;;17.70;74.90;;;;;;5017737;28;20037;-76
2023/08/04 02:28:54;;;;;;;1.42;0.85;;;17.70;74.90;;;;;;5034170;28;20049;-76
2023/08/04 02:31:23;;;;;;;2.15;0.90;;;17.70;74.90;;;;;;5017557;28;20045;-75
2023/08/04 02:33:49;;;;;;;2.65;0.75;;;17.70;74.90;;;;;;5034260;28;20384;-76
2023/08/04 02:36:15;;;;;;;4.03;1.00;;;17.70;75.00;;;;;;5034031;28;20053;-75
2023/08/04 02:38:41;;;;;;;4.40;1.17;;;17.70;75.00;;;;;;5017305;28;20485;-76
2023/08/04 02:41:10;;;;;;;1.75;1.02;;;17.70;75.00;;;;;;5034111;28;20048;-76
2023/08/04 02:43:37;;;;;;;2.33;1.10;;;17.70;75.00;;;;;;5033029;28;20493;-76
2023/08/04 02:46:02;;;;;;;1.83;0.60;;;17.60;75.00;;;;;;5033710;28;20516;-76
2023/08/04 02:48:29;;;;;;;2.20;1.08;;;17.70;75.00;;;;;;5017065;28;20041;-76
2023/08/04 02:51:05;;;;;;;2.15;0.82;;;17.70;75.00;;;;;;5033926;28;20038;-76
2023/08/04 02:53:32;;;;;;;3.25;1.20;;;17.70;74.90;;;;;;5033665;28;20046;-76
2023/08/04 02:55:58;;;;;;;2.05;0.80;;;17.70;74.90;;;;;;5033665;28;20052;-76
2023/08/04 02:58:25;;;;;;;0.98;0.45;;;17.60;74.70;;;;;;5033600;28;20042;-76
2023/08/04 03:00:53;;;;;;;1.90;0.80;;;17.70;74.70;;;;;;5033494;28;20080;-76
2023/08/04 03:03:19;;;;;;;2.53;0.77;;;17.60;74.60;;;;;;5017181;28;20080;-76
2023/08/04 03:05:45;;;;;;;1.00;0.60;;;17.60;74.50;;;;;;5016848;28;20073;-76
2023/08/04 03:08:11;;;;;;;1.42;0.80;;;17.70;74.50;;;;;;5033336;28;20488;-76
2023/08/04 03:10:41;;;;;;;2.35;0.70;;;17.60;74.40;;;;;;5033360;28;20045;-76
2023/08/04 03:13:08;;;;;;;1.95;1.00;;;17.70;74.40;;;;;;5016893;28;20088;-75
2023/08/04 03:15:34;;;;;;;2.53;0.98;;;17.70;74.50;;;;;;5033311;28;20046;-75
2023/08/04 03:17:59;;;;;;;3.53;0.98;;;17.70;74.50;;;;;;5032886;28;20045;-76
2023/08/04 03:20:25;;;;;;;2.85;1.30;;;17.60;74.50;;;;;;5016630;28;20037;-75
2023/08/04 03:22:51;;;;;;;1.98;0.80;;;17.70;75.00;;;;;;5032976;28;20053;-76
2023/08/04 03:25:17;;;;;;;3.45;1.10;;;17.60;74.50;;;;;;5033079;28;20120;-76
2023/08/04 03:27:42;;;;;;;2.58;1.00;;;17.60;74.60;;;;;;5033223;28;20069;-76
2023/08/04 03:30:08;;;;;;;4.00;1.17;;;17.60;74.60;;;;;;5016528;28;20527;-76
2023/08/04 03:32:34;;;;;;;2.80;0.82;;;17.60;74.60;;;;;;5033186;28;20049;-75
2023/08/04 03:35:00;;;;;;;2.47;1.35;;;17.60;74.70;;;;;;5032883;28;20108;-75
2023/08/04 03:37:25;;;;;;;2.10;1.10;;;17.60;74.70;;;;;;5016801;28;20049;-76
2023/08/04 03:39:51;;;;;;;2.10;1.13;;;17.50;74.60;;;;;;5032714;28;20489;-76
2023/08/04 03:42:17;;;;;;;1.77;1.00;;;17.60;74.70;;;;;;5032945;28;20047;-76
2023/08/04 03:44:42;;;;;;;2.65;0.90;;;17.60;74.70;;;;;;5032784;28;20473;-75
2023/08/04 03:47:08;;;;;;;1.83;0.85;;;17.60;74.80;;;;;;5016385;28;20091;-75
2023/08/04 03:49:34;;;;;;;2.22;1.00;;;17.50;74.80;;;;;;4999705;28;20477;-76
2023/08/04 03:51:59;;;;;;;3.60;1.40;;;17.60;74.90;;;;;;5016327;28;20049;-76
2023/08/04 03:54:25;;;;;;;4.05;1.73;;;17.50;74.90;;;;;;5015503;28;20505;-76
2023/08/04 03:56:51;;;;;;;2.70;0.80;;;17.60;75.00;;;;;;5015861;28;20045;-76
2023/08/04 03:59:16;;;;;;;2.45;1.30;;;17.50;75.00;;;;;;5032314;28;20511;-75
2023/08/04 04:01:42;;;;;;;1.73;1.00;;;17.60;75.10;;;;;;5016200;28;20041;-76
2023/08/04 04:04:08;;;;;;;2.53;1.00;;;17.50;75.10;;;;;;5032355;28;20504;-76
2023/08/04 04:06:34;;;;;;;3.45;1.00;;;17.50;75.10;;;;;;5015943;28;20096;-76
2023/08/04 04:08:59;;;;;;;1.70;1.00;;;17.60;75.20;;;;;;5032256;28;20052;-76
2023/08/04 04:11:25;;;;;;;1.70;1.00;;;17.60;75.20;;;;;;5015659;28;20128;-76
2023/08/04 04:13:50;;;;;;;2.65;1.23;;;17.60;75.30;;;;;;5015640;28;20041;-76
2023/08/04 04:16:16;;;;;;;4.03;1.20;;;17.60;75.30;;;;;;5032268;28;20094;-75
2023/08/04 04:18:42;;;;;;;1.50;0.93;;;17.60;75.30;;;;;;5031859;28;20048;-76
2023/08/04 04:21:07;;;;;;;2.22;1.00;;;17.50;75.30;;;;;;5032145;28;20044;-76
2023/08/04 04:23:33;;;;;;;3.00;1.38;;;17.50;75.40;;;;;;5031980;28;20076;-76
2023/08/04 04:25:59;;;;;;;2.40;1.60;;;17.60;75.50;;;;;;4999254;28;20049;-75
2023/08/04 04:28:24;;;;;;;2.38;1.00;;;17.60;75.50;;;;;;4999576;28;20041;-76
2023/08/04 04:30:50;;;;;;;3.28;1.27;;;17.60;75.50;;;;;;5031970;28;20403;-76
2023/08/04 04:33:16;;;;;;;4.75;1.10;;;17.60;75.60;;;;;;5032210;28;20099;-76
2023/08/04 04:35:49;;;;;;;2.97;1.20;;;17.50;75.60;;;;;;5031944;28;20049;-76
2023/08/04 04:38:15;;;;;;;3.40;1.13;;;17.60;75.70;;;;;;5031947;28;20400;-76
2023/08/04 04:40:40;;;;;;;2.10;1.00;;;17.60;75.80;;;;;;5015519;28;20056;-76
2023/08/04 04:43:06;;;;;;;2.33;1.20;;;17.60;75.80;;;;;;5015386;28;20041;-76
2023/08/04 04:45:32;;;;;;;4.30;1.38;;;17.50;75.80;;;;;;5015383;28;20073;-76
2023/08/04 04:47:58;;;;;;;2.45;1.08;;;17.60;75.90;;;;;;5032012;28;20038;-76
2023/08/04 04:50:24;;;;;;;3.25;1.02;;;17.60;76.00;;;;;;4999090;28;20047;-76
2023/08/04 04:52:49;;;;;;;2.05;0.85;;;17.60;76.20;;;;;;5031556;28;20038;-75
2023/08/04 04:55:15;;;;;;;3.63;1.63;;;17.60;76.20;;;;;;5015498;28;20037;-76
2023/08/04 04:57:41;;;;;;;3.30;1.05;;;17.60;76.20;;;;;;5031634;28;20125;-76
2023/08/04 05:00:08;;;;;;;2.47;0.80;;;17.60;76.20;;;;;;5015100;28;20064;-76
2023/08/04 05:02:33;;;;;;;2.97;1.10;;;17.60;76.30;;;;;;5031351;28;20037;-76
2023/08/04 05:04:59;;;;;;;2.45;0.90;;;17.60;76.40;;;;;;5031675;28;20056;-76
2023/08/04 05:07:25;;;;;;;2.60;1.40;;;17.60;76.50;;;;;;5034216;28;20405;-76
2023/08/04 05:09:50;;;;;;;0.80;0.70;;;17.60;76.50;;;;;;5019087;28;20048;-76
2023/08/04 05:12:16;;;;;;;2.53;1.00;;;17.60;76.50;;;;;;5019042;28;20045;-76
2023/08/04 05:14:41;;;;;;;2.67;1.15;;;17.60;76.60;;;;;;5035527;28;20052;-76
2023/08/04 05:17:07;;;;;;;1.27;0.93;;;17.60;76.70;;;;;;5019288;28;20049;-76
2023/08/04 05:19:33;;;;;;;3.30;1.20;;;17.60;76.70;;;;;;5018837;28;20073;-76
2023/08/04 05:21:59;;;;;;;1.60;0.98;;;17.60;76.80;;;;;;5019122;28;20079;-76
2023/08/04 05:24:24;;;;;;;1.52;1.00;;;17.60;76.90;;;;;;5035522;28;20420;-75
2023/08/04 05:26:50;;;;;;;1.52;1.10;;;17.60;76.90;;;;;;5018870;28;20460;-75
2023/08/04 05:29:16;;;;;;;1.23;0.75;;;17.60;76.90;;;;;;5019007;28;20045;-76
2023/08/04 05:31:41;;;;;;;2.28;0.80;;;17.70;77.10;;;;;;5002445;28;20069;-75
2023/08/04 05:34:07;;;;;;;1.42;0.85;;;17.70;77.20;;;;;;5018999;28;20048;-76
2023/08/04 05:36:33;;;;;;;1.75;0.90;;;17.70;77.30;;;;;;5035179;28;20041;-76
2023/08/04 05:38:58;;;;;;;1.60;0.70;;;17.70;77.40;;;;;;5018602;28;20095;-76
2023/08/04 05:41:24;;;;;;;1.98;0.90;;;17.80;77.60;;;;;;5035073;28;20068;-75
2023/08/04 05:43:50;;;;;;;3.88;0.80;;;17.80;77.60;;;;;;5035030;28;20124;-75
2023/08/04 05:46:16;;;;;;;1.98;0.90;;;17.80;77.70;;;;;;5034867;28;20150;-75
2023/08/04 05:48:41;;;;;;;1.88;1.00;;;17.80;77.80;;;;;;5018728;28;20125;-75
2023/08/04 05:51:07;;;;;;;1.58;0.70;;;17.80;77.70;;;;;;5035095;28;20075;-75
2023/08/04 05:53:33;;;;;;;1.80;0.80;;;17.90;77.70;;;;;;5034959;28;20508;-76
2023/08/04 05:55:59;;;;;;;1.98;0.80;;;17.90;77.60;;;;;;5034842;28;20481;-75
2023/08/04 05:58:24;;;;;;;1.60;0.70;;;17.90;77.40;;;;;;5018233;28;20485;-75
2023/08/04 06:00:51;;;;;;;4.68;1.55;;;18.00;77.40;;;;;;5034920;28;20073;-75
2023/08/04 06:03:16;;;;;;;1.63;0.85;;;18.00;78.30;;;;;;5034818;28;20041;-76
2023/08/04 06:05:42;;;;;;;1.48;0.70;;;18.20;78.90;;;;;;5034625;28;20038;-75
2023/08/04 06:08:08;;;;;;;3.97;0.95;;;18.40;78.40;;;;;;5018328;28;20037;-75
2023/08/04 06:10:35;;;;;;;2.28;1.23;;;18.50;77.70;;;;;;5018020;28;20593;-76
2023/08/04 06:13:02;;;;;;;3.25;0.80;;;18.60;77.00;;;;;;5034432;28;20140;-75
2023/08/04 06:15:28;;;;;;;2.20;0.98;;;18.70;76.60;;;;;;5017928;28;20044;-76
2023/08/04 06:17:54;;;;;;;5.03;1.15;;;18.80;76.30;;;;;;5016602;28;20037;-75
2023/08/04 06:20:19;;;;;;;2.42;0.90;;;18.80;75.70;;;;;;5034288;28;20045;-75
2023/08/04 06:22:48;;;;;;;1.40;0.68;;;18.90;75.20;;;;;;5034060;28;20049;-76
2023/08/04 06:25:16;;;;;;;3.90;1.20;;;19.00;75.00;;;;;;5034533;28;20413;-76
2023/08/04 06:27:42;;;;;;;1.98;0.85;;;19.00;74.80;;;;;;5034152;28;20571;-76
2023/08/04 06:30:08;;;;;;;2.00;0.90;;;19.00;74.50;;;;;;5017742;28;20037;-75
2023/08/04 06:32:35;;;;;;;2.67;0.82;;;19.00;74.20;;;;;;5034089;28;20084;-75
2023/08/04 06:35:01;;;;;;;1.17;0.60;;;19.10;74.20;;;;;;5034014;28;20497;-75
2023/08/04 06:37:26;;;;;;;2.85;0.90;;;19.10;74.10;;;;;;5033964;28;20041;-76
2023/08/04 06:39:52;;;;;;;2.38;0.70;;;19.10;74.00;;;;;;5001200;28;20061;-75
2023/08/04 06:42:18;;;;;;;2.47;1.10;;;19.20;73.90;;;;;;5033891;28;20037;-76
2023/08/04 06:44:45;;;;;;;2.13;0.77;;;19.20;73.70;;;;;;5033941;28;20128;-76
2023/08/04 06:47:12;;;;;;;2.13;0.80;;;19.20;73.60;;;;;;5033836;28;20042;-75
2023/08/04 06:49:38;;;;;;;3.50;1.38;;;19.20;73.40;;;;;;5030326;28;20481;-75
2023/08/04 06:52:04;;;;;;;2.35;0.98;;;19.30;73.80;;;;;;5033943;28;20044;-76
2023/08/04 06:54:29;;;;;;;2.63;1.30;;;19.30;73.40;;;;;;5033898;28;20107;-75
2023/08/04 06:56:55;;;;;;;2.10;0.95;;;19.30;73.30;;;;;;5017265;28;20504;-75
2023/08/04 06:59:21;;;;;;;1.65;0.90;;;19.30;73.30;;;;;;5033225;28;20033;-76
2023/08/04 07:01:47;;;;;;;3.10;1.00;;;19.30;73.20;;;;;;5033592;28;20037;-76
2023/08/04 07:04:12;;;;;;;2.47;0.90;;;19.30;73.00;;;;;;5033461;28;20045;-76
2023/08/04 07:06:38;;;;;;;1.38;0.80;;;19.30;72.80;;;;;;5017247;28;20041;-76
2023/08/04 07:09:04;;;;;;;2.38;1.00;;;19.40;72.90;;;;;;5017281;28;20112;-77
2023/08/04 07:11:30;;;;;;;1.85;1.05;;;19.40;72.90;;;;;;5033523;28;20049;-77
2023/08/04 07:13:55;;;;;;;2.30;1.27;;;19.40;73.40;;;;;;5016900;28;20045;-77
2023/08/04 07:16:21;;;;;;;2.85;1.10;;;19.40;73.30;;;;;;5016831;28;20046;-77
2023/08/04 07:18:47;;;;;;;1.35;1.00;;;19.40;73.30;;;;;;5016821;28;20038;-77
2023/08/04 07:21:13;;;;;;;2.70;1.15;;;19.40;73.20;;;;;;5016888;28;20037;-77
2023/08/04 07:23:41;;;;;;;1.73;0.90;;;19.40;73.20;;;;;;5033178;28;20535;-77
2023/08/04 07:26:08;;;;;;;1.88;1.17;;;19.40;73.20;;;;;;5016739;28;20064;-78
2023/08/04 07:28:35;;;;;;;2.28;1.00;;;19.50;73.40;;;;;;5033157;28;20481;-77
2023/08/04 07:31:05;;;;;;;2.38;1.00;;;19.40;73.50;;;;;;5033197;28;20374;-78
2023/08/04 07:33:30;;;;;;;3.05;1.20;;;19.50;73.80;;;;;;5032903;28;20489;-78
2023/08/04 07:35:57;;;;;;;3.22;1.42;;;19.50;73.90;;;;;;5016467;28;20096;-78
2023/08/04 07:38:23;;;;;;;2.28;1.08;;;19.50;73.90;;;;;;5033057;28;20095;-77
2023/08/04 07:40:50;;;;;;;2.40;1.20;;;19.50;73.60;;;;;;5033147;28;20436;-77
2023/08/04 07:43:16;;;;;;;2.47;1.13;;;19.50;73.50;;;;;;5032559;28;20037;-77
2023/08/04 07:45:42;;;;;;;2.88;1.10;;;19.50;73.60;;;;;;5016743;28;20049;-77
2023/08/04 07:48:08;;;;;;;2.42;1.20;;;19.60;73.80;;;;;;5032578;28;20369;-77
2023/08/04 07:50:41;;;;;;;3.45;1.40;;;19.60;73.90;;;;;;5032760;28;20040;-77
2023/08/04 07:53:07;;;;;;;2.17;1.10;;;19.70;74.20;;;;;;5016128;28;20563;-78
2023/08/04 07:55:36;;;;;;;2.03;1.10;;;19.70;74.20;;;;;;4999872;28;20132;-77
2023/08/04 07:58:06;;;;;;;2.45;1.17;;;19.80;74.20;;;;;;5032498;28;20076;-78
2023/08/04 08:00:32;;;;;;;1.77;1.20;;;20.00;74.10;;;;;;5032940;28;20041;-78
2023/08/04 08:02:58;;;;;;;1.85;1.05;;;20.20;73.90;;;;;;5016287;28;20076;-78
2023/08/04 08:05:23;;;;;;;2.28;1.10;;;20.40;72.90;;;;;;5032344;28;20072;-77
2023/08/04 08:07:49;;;;;;;1.27;0.77;;;20.60;72.40;;;;;;5032421;28;20067;-77
2023/08/04 08:10:15;;;;;;;3.13;1.10;;;20.90;72.20;;;;;;5016016;28;20049;-77
2023/08/04 08:12:41;;;;;;;2.05;1.08;;;21.20;71.30;;;;;;4999718;28;20047;-77
2023/08/04 08:15:07;;;;;;;2.25;1.00;;;21.40;69.80;;;;;;4999787;28;20137;-78
2023/08/04 08:17:33;;;;;;;1.30;0.90;;;21.60;68.90;;;;;;5032175;28;20045;-77
2023/08/04 08:19:58;;;;;;;2.22;1.10;;;21.80;68.60;;;;;;5014410;28;20053;-78
2023/08/04 08:22:24;;;;;;;1.90;1.02;;;21.90;68.10;;;;;;5012662;28;20045;-77
2023/08/04 08:24:54;;;;;;;3.78;1.35;;;22.00;67.10;;;;;;5030881;28;20103;-78
2023/08/04 08:27:20;;;;;;;4.15;1.90;;;22.10;65.90;;;;;;5015402;28;20045;-78
2023/08/04 08:29:46;;;;;;;2.17;0.80;;;22.20;65.30;;;;;;5015627;28;20045;-76
2023/08/04 08:32:11;;;;;;;2.25;0.93;;;22.20;64.40;;;;;;5015530;28;20038;-79
2023/08/04 08:34:38;;;;;;;2.63;0.90;;;22.10;63.40;;;;;;5032023;28;20440;-79
2023/08/04 08:37:08;;;;;;;1.23;0.55;;;22.10;63.60;;;;;;4999090;28;20099;-80
2023/08/04 08:39:33;;;;;;;2.15;0.70;;;22.00;63.90;;;;;;5032135;28;20038;-80
2023/08/04 08:41:59;;;;;;;1.00;0.60;;;22.00;64.30;;;;;;5031517;28;20090;-80
2023/08/04 08:44:25;;;;;;;2.30;0.90;;;21.90;64.70;;;;;;5015910;28;20128;-79
2023/08/04 08:46:52;;;;;;;2.10;0.82;;;21.90;65.00;;;;;;5015797;28;20616;-80
2023/08/04 08:49:22;;;;;;;2.20;0.70;;;21.90;65.80;;;;;;5015616;28;20045;-80
2023/08/04 08:51:51;;;;;;;2.15;0.88;;;21.80;66.50;;;;;;5032244;28;20397;-79
2023/08/04 08:54:19;;;;;;;2.58;1.00;;;21.80;67.00;;;;;;5032081;28;20127;-79
2023/08/04 08:56:45;;;;;;;1.38;0.73;;;21.80;67.00;;;;;;5015377;28;20049;-80
2023/08/04 08:59:10;;;;;;;2.17;0.80;;;21.70;66.90;;;;;;5015362;28;20123;-79
2023/08/04 09:01:37;;;;;;;3.67;0.85;;;21.70;67.30;;;;;;5015385;28;20069;-79
2023/08/04 09:04:04;;;;;;;2.65;0.80;;;21.70;67.30;;;;;;5031684;28;20047;-79
2023/08/04 09:06:30;;;;;;;3.08;0.80;;;21.70;67.60;;;;;;5031811;28;20088;-79
2023/08/04 09:08:55;;;;;;;3.65;1.13;;;21.70;67.50;;;;;;5015356;28;20131;-79
2023/08/04 09:11:21;;;;;;;2.70;1.00;;;21.80;68.00;;;;;;5015200;28;20052;-79
2023/08/04 09:13:49;;;;;;;4.18;1.23;;;21.90;68.40;;;;;;5015283;28;20045;-79
2023/08/04 09:16:15;;;;;;;2.10;1.05;;;22.10;68.50;;;;;;5031527;28;20045;-79
2023/08/04 09:18:42;;;;;;;4.72;1.17;;;22.30;68.20;;;;;;5031406;28;20552;-78
2023/08/04 09:21:08;;;;;;;2.53;1.20;;;22.40;67.40;;;;;;5015443;28;20095;-78
2023/08/04 09:23:42;;;;;;;2.47;0.93;;;22.50;66.40;;;;;;5031447;28;20045;-79
2023/08/04 09:26:08;;;;;;;5.13;1.40;;;22.70;66.30;;;;;;5031577;28;20051;-78
2023/08/04 09:28:34;;;;;;;2.38;1.08;;;22.80;65.70;;;;;;5031840;28;20060;-79
2023/08/04 09:31:06;;;;;;;3.58;1.33;;;22.90;65.30;;;;;;5015183;28;20485;-79
2023/08/04 09:33:37;;;;;;;4.22;1.60;;;23.00;64.50;;;;;;5015078;28;20489;-78
2023/08/04 09:36:10;;;;;;;3.28;0.77;;;23.10;63.70;;;;;;5031495;28;20050;-78
2023/08/04 09:38:37;;;;;;;1.83;0.82;;;23.10;61.70;;;;;;5015201;28;20060;-78
2023/08/04 09:41:12;;;;;;;3.58;1.23;;;23.20;59.90;;;;;;5031479;28;20048;-78
2023/08/04 09:43:50;;;;;;;3.85;0.82;;;23.10;59.60;;;;;;5031788;28;20045;-79
2023/08/04 09:46:16;;;;;;;2.75;0.98;;;23.10;59.80;;;;;;5031776;28;20038;-79
2023/08/04 09:48:42;;;;;;;2.92;0.85;;;23.00;60.20;;;;;;5031316;28;20038;-80
2023/08/04 09:51:19;;;;;;;1.63;0.82;;;22.90;60.00;;;;;;4998942;28;20048;-80
2023/08/04 09:53:56;;;;;;;2.03;0.80;;;22.80;60.40;;;;;;5034408;28;20045;-80
2023/08/04 09:56:28;;;;;;;3.20;0.95;;;22.80;60.90;;;;;;5035231;28;20045;-80
2023/08/04 09:58:54;;;;;;;3.53;1.20;;;22.70;61.10;;;;;;5003108;28;20041;-79
2023/08/04 10:01:20;;;;;;;4.28;1.02;;;22.70;61.80;;;;;;5034588;28;20397;-76
2023/08/04 10:03:54;;;;;;;1.58;0.70;;;22.70;62.90;;;;;;5018066;28;20033;-76
2023/08/04 10:06:21;;;;;;;3.53;1.20;;;22.70;63.60;;;;;;5017963;28;20033;-75
2023/08/04 10:08:49;;;;;;;6.47;1.20;;;22.70;63.90;;;;;;5034577;28;20048;-75
2023/08/04 10:11:15;;;;;;;3.13;1.00;;;22.70;63.30;;;;;;5034774;28;20128;-76
2023/08/04 10:13:46;;;;;;;4.25;1.80;;;22.70;63.80;;;;;;5018006;28;20129;-75
2023/08/04 10:16:17;;;;;;;1.98;1.02;;;22.80;64.30;;;;;;5034405;28;20049;-75
2023/08/04 10:18:54;;;;;;;2.55;1.10;;;22.80;63.50;;;;;;5017789;28;20041;-75
2023/08/04 10:21:26;;;;;;;4.13;1.50;;;22.90;64.00;;;;;;5034597;28;20040;-76
2023/08/04 10:23:52;;;;;;;4.50;1.27;;;22.90;63.50;;;;;;5034132;28;20065;-76
2023/08/04 10:26:19;;;;;;;3.80;1.10;;;23.00;63.40;;;;;;5034499;28;20049;-75
2023/08/04 10:29:17;;;;;;;3.85;0.90;;;23.00;62.90;;;;;;5017723;28;20485;-75
2023/08/04 10:31:47;;;;;;;3.42;1.10;;;23.10;63.30;;;;;;5002086;28;20061;-75
2023/08/04 10:34:25;;;;;;;3.38;0.98;;;23.10;64.20;;;;;;5034357;28;20046;-75
2023/08/04 10:36:54;;;;;;;3.13;1.27;;;23.30;65.20;;;;;;5034316;28;20044;-75
2023/08/04 10:39:30;;;;;;;3.85;1.60;;;23.40;63.40;;;;;;5017524;28;20117;-75
2023/08/04 10:41:56;;;;;;;4.95;1.45;;;23.60;61.80;;;;;;5034231;28;20034;-75
2023/08/04 10:44:50;;;;;;;3.63;1.10;;;23.60;60.60;;;;;;5034159;28;20037;-76
2023/08/04 10:47:38;;;;;;;2.30;1.17;;;23.60;59.80;;;;;;5034112;28;20061;-76
2023/08/04 10:50:05;;;;;;;3.08;1.00;;;23.60;59.80;;;;;;5033866;28;20045;-75
2023/08/04 10:52:32;;;;;;;3.95;1.35;;;23.60;59.40;;;;;;5033957;28;20085;-75
2023/08/04 10:54:58;;;;;;;2.13;1.05;;;23.50;58.90;;;;;;5017506;28;20052;-76
2023/08/04 10:57:28;;;;;;;2.22;0.93;;;23.50;59.30;;;;;;5017258;28;20049;-75
2023/08/04 10:59:55;;;;;;;3.10;1.20;;;23.40;59.10;;;;;;5033650;28;20393;-76
2023/08/04 11:02:22;;;;;;;3.83;1.20;;;23.40;59.20;;;;;;5033778;28;20044;-76
2023/08/04 11:04:48;;;;;;;3.92;1.45;;;23.40;59.00;;;;;;5032966;28;20033;-76
2023/08/04 11:07:15;;;;;;;3.90;1.20;;;23.30;59.60;;;;;;5017254;28;20041;-76
2023/08/04 11:09:42;;;;;;;3.95;1.27;;;23.30;59.20;;;;;;5016927;28;20045;-76
2023/08/04 11:12:09;;;;;;;3.33;1.23;;;23.30;59.30;;;;;;5033500;28;20393;-76
2023/08/04 11:14:35;;;;;;;4.57;1.52;;;23.30;59.40;;;;;;5033354;28;20508;-76
2023/08/04 11:17:02;;;;;;;4.43;1.73;;;23.20;59.50;;;;;;5033250;28;20080;-75
2023/08/04 11:19:32;;;;;;;6.28;1.63;;;23.20;59.90;;;;;;5033092;28;20057;-75
2023/08/04 11:22:11;;;;;;;5.93;2.13;;;23.20;61.30;;;;;;5033175;28;20045;-75
2023/08/04 11:24:37;;;;;;;3.42;1.23;;;23.30;62.20;;;;;;5016600;28;20663;-75
2023/08/04 11:27:04;;;;;;;3.92;1.50;;;23.30;60.60;;;;;;5016911;28;20124;-75
2023/08/04 11:29:30;;;;;;;5.63;1.48;;;23.30;60.90;;;;;;5033055;28;20045;-75
2023/08/04 11:31:55;;;;;;;9.05;1.70;;;23.40;61.00;;;;;;5016776;28;20049;-75
2023/08/04 11:34:21;;;;;;;4.10;1.17;;;23.50;59.00;;;;;;5032861;28;20111;-75
2023/08/04 11:36:47;;;;;;;4.80;1.60;;;23.50;58.60;;;;;;5016723;28;20084;-76
2023/08/04 11:39:12;;;;;;;4.22;1.35;;;23.40;59.50;;;;;;5032824;28;20393;-76
2023/08/04 11:41:38;;;;;;;4.63;1.70;;;23.40;59.40;;;;;;5016368;28;20037;-75
2023/08/04 11:44:04;;;;;;;3.15;1.38;;;23.40;59.50;;;;;;5016361;28;20091;-75
2023/08/04 11:46:30;;;;;;;4.88;1.90;;;23.30;60.10;;;;;;5032786;28;20068;-75
2023/08/04 11:48:56;;;;;;;3.20;1.30;;;23.20;60.50;;;;;;5016583;28;20171;-75
2023/08/04 11:51:22;;;;;;;3.95;1.75;;;23.10;61.30;;;;;;5016164;28;20529;-75
2023/08/04 11:53:49;;;;;;;5.28;1.77;;;23.10;61.70;;;;;;5016126;28;20073;-75
2023/08/04 11:56:15;;;;;;;3.00;1.33;;;23.10;62.00;;;;;;5016398;28;20156;-75
2023/08/04 11:58:43;;;;;;;4.30;1.58;;;23.00;62.00;;;;;;5032728;28;20544;-75
2023/08/04 12:01:26;;;;;;;3.83;1.38;;;23.00;61.30;;;;;;5032431;28;20041;-75
2023/08/04 12:03:52;;;;;;;6.03;1.42;;;23.00;61.20;;;;;;5016357;28;20042;-75
2023/08/04 12:06:19;;;;;;;6.32;1.75;;;23.00;61.40;;;;;;5032464;28;20087;-75
2023/08/04 12:09:04;;;;;;;4.32;1.70;;;22.90;62.00;;;;;;5032523;28;20128;-75
2023/08/04 12:11:30;;;;;;;5.72;1.70;;;22.90;62.40;;;;;;5032264;28;20560;-75
2023/08/04 12:14:09;;;;;;;6.03;1.67;;;23.00;62.70;;;;;;5015746;28;20092;-75
2023/08/04 12:16:58;;;;;;;4.15;1.60;;;23.00;61.90;;;;;;5014829;28;20049;-75
2023/08/04 12:19:25;;;;;;;5.20;1.80;;;23.10;62.60;;;;;;5032084;28;20045;-75
2023/08/04 12:21:53;;;;;;;6.28;2.05;;;23.10;62.60;;;;;;5032032;28;20172;-76
2023/08/04 12:24:20;;;;;;;5.18;1.70;;;23.10;62.40;;;;;;5015646;28;20566;-75
2023/08/04 12:26:46;;;;;;;3.92;1.50;;;23.20;61.60;;;;;;5032054;28;20091;-75
2023/08/04 12:29:11;;;;;;;4.32;1.52;;;23.20;60.60;;;;;;5031885;28;20045;-76
2023/08/04 12:31:38;;;;;;;2.88;1.20;;;23.30;60.40;;;;;;5015390;28;20088;-75
2023/08/04 12:34:05;;;;;;;4.40;1.48;;;23.30;60.40;;;;;;5031767;28;20095;-75
2023/08/04 12:36:31;;;;;;;3.65;1.38;;;23.30;60.10;;;;;;5032146;28;20400;-75
2023/08/04 12:38:57;;;;;;;2.70;1.17;;;23.40;59.80;;;;;;5031978;28;20042;-75
2023/08/04 12:41:22;;;;;;;1.83;0.95;;;23.40;59.70;;;;;;5031740;28;20480;-76
2023/08/04 12:43:48;;;;;;;3.10;1.20;;;23.40;58.60;;;;;;5015624;28;20037;-75
2023/08/04 12:46:14;;;;;;;2.83;0.95;;;23.40;58.20;;;;;;5015324;28;20422;-75
2023/08/04 12:48:40;;;;;;;3.85;1.20;;;23.40;58.20;;;;;;5031205;28;20136;-75